sensor_id;sensor_type;location;lat;lon;timestamp;P1;durP1;ratioP1;P2;durP2;ratioP2
4377;SDS011;2203;53.686;9.994;2023-12-28T00:00:22;4.80;;;1.80;;
4377;SDS011;2203;53.686;9.994;2023-12-28T00:02:48;6.27;;;2.00;;
4377;SDS011;2203;53.686;9.994;2023-12-28T00:05:13;6.40;;;2.20;;
4377;SDS011;2203;53.686;9.994;2023-12-28T00:07:38;5.30;;;1.70;;
4377;SDS011;2203;53.686;9.994;2023-12-28T00:10:04;4.80;;;1.93;;
4377;SDS011;2203;53.686;9.994;2023-12-28T00:12:29;7.30;;;2.10;;
4377;SDS011;2203;53.686;9.994;2023-12-28T00:14:55;8.17;;;2.10;;
4377;SDS011;2203;53.686;9.994;2023-12-28T00:17:20;5.33;;;2.20;;
4377;SDS011;2203;53.686;9.994;2023-12-28T00:19:46;3.73;;;2.10;;
4377;SDS011;2203;53.686;9.994;2023-12-28T00:22:11;8.07;;;2.00;;
4377;SDS011;2203;53.686;9.994;2023-12-28T00:24:37;8.30;;;2.10;;
4377;SDS011;2203;53.686;9.994;2023-12-28T00:27:02;7.20;;;2.80;;
4377;SDS011;2203;53.686;9.994;2023-12-28T00:29:28;2.27;;;1.73;;
4377;SDS011;2203;53.686;9.994;2023-12-28T00:31:54;9.10;;;1.90;;
4377;SDS011;2203;53.686;9.994;2023-12-28T00:34:19;6.40;;;1.80;;
4377;SDS011;2203;53.686;9.994;2023-12-28T00:36:45;10.87;;;2.37;;
4377;SDS011;2203;53.686;9.994;2023-12-28T00:39:10;4.50;;;1.93;;
4377;SDS011;2203;53.686;9.994;2023-12-28T00:41:36;4.13;;;1.93;;
4377;SDS011;2203;53.686;9.994;2023-12-28T00:44:01;4.60;;;1.87;;
4377;SDS011;2203;53.686;9.994;2023-12-28T00:46:27;7.07;;;2.50;;
4377;SDS011;2203;53.686;9.994;2023-12-28T00:49:02;9.10;;;2.20;;
4377;SDS011;2203;53.686;9.994;2023-12-28T00:51:27;9.00;;;1.90;;
4377;SDS011;2203;53.686;9.994;2023-12-28T00:53:53;8.30;;;1.90;;
4377;SDS011;2203;53.686;9.994;2023-12-28T00:56:18;4.00;;;2.43;;
4377;SDS011;2203;53.686;9.994;2023-12-28T00:58:45;5.70;;;2.03;;
4377;SDS011;2203;53.686;9.994;2023-12-28T01:01:11;5.83;;;2.17;;
4377;SDS011;2203;53.686;9.994;2023-12-28T01:03:36;6.83;;;1.93;;
4377;SDS011;2203;53.686;9.994;2023-12-28T01:06:01;5.23;;;1.93;;
4377;SDS011;2203;53.686;9.994;2023-12-28T01:08:27;5.37;;;1.93;;
4377;SDS011;2203;53.686;9.994;2023-12-28T01:10:52;4.80;;;2.17;;
4377;SDS011;2203;53.686;9.994;2023-12-28T01:13:18;2.77;;;1.90;;
4377;SDS011;2203;53.686;9.994;2023-12-28T01:15:43;3.57;;;2.27;;
4377;SDS011;2203;53.686;9.994;2023-12-28T01:18:09;12.83;;;2.50;;
4377;SDS011;2203;53.686;9.994;2023-12-28T01:20:34;3.37;;;1.90;;
4377;SDS011;2203;53.686;9.994;2023-12-28T01:23:01;2.67;;;1.70;;
4377;SDS011;2203;53.686;9.994;2023-12-28T01:25:27;3.87;;;1.70;;
4377;SDS011;2203;53.686;9.994;2023-12-28T01:27:52;2.30;;;2.00;;
4377;SDS011;2203;53.686;9.994;2023-12-28T01:30:17;2.80;;;2.13;;
4377;SDS011;2203;53.686;9.994;2023-12-28T01:32:43;4.33;;;2.07;;
4377;SDS011;2203;53.686;9.994;2023-12-28T01:35:08;4.23;;;2.30;;
4377;SDS011;2203;53.686;9.994;2023-12-28T01:37:34;4.97;;;2.57;;
4377;SDS011;2203;53.686;9.994;2023-12-28T01:39:59;5.10;;;2.27;;
4377;SDS011;2203;53.686;9.994;2023-12-28T01:42:25;5.70;;;2.13;;
4377;SDS011;2203;53.686;9.994;2023-12-28T01:44:51;5.80;;;2.17;;
4377;SDS011;2203;53.686;9.994;2023-12-28T01:47:16;3.77;;;2.30;;
4377;SDS011;2203;53.686;9.994;2023-12-28T01:49:42;5.40;;;2.90;;
4377;SDS011;2203;53.686;9.994;2023-12-28T01:52:08;4.83;;;2.73;;
4377;SDS011;2203;53.686;9.994;2023-12-28T01:54:33;7.37;;;2.47;;
4377;SDS011;2203;53.686;9.994;2023-12-28T01:57:00;3.90;;;2.57;;
4377;SDS011;2203;53.686;9.994;2023-12-28T01:59:25;10.77;;;2.70;;
4377;SDS011;2203;53.686;9.994;2023-12-28T02:01:51;8.57;;;2.67;;
4377;SDS011;2203;53.686;9.994;2023-12-28T02:04:16;6.30;;;2.60;;
4377;SDS011;2203;53.686;9.994;2023-12-28T02:06:42;4.60;;;3.00;;
4377;SDS011;2203;53.686;9.994;2023-12-28T02:09:07;3.47;;;3.03;;
4377;SDS011;2203;53.686;9.994;2023-12-28T02:11:32;7.93;;;2.50;;
4377;SDS011;2203;53.686;9.994;2023-12-28T02:13:58;7.27;;;2.80;;
4377;SDS011;2203;53.686;9.994;2023-12-28T02:16:33;3.70;;;2.43;;
4377;SDS011;2203;53.686;9.994;2023-12-28T02:19:03;4.40;;;2.30;;
4377;SDS011;2203;53.686;9.994;2023-12-28T02:21:43;4.57;;;2.57;;
4377;SDS011;2203;53.686;9.994;2023-12-28T02:24:09;6.43;;;2.80;;
4377;SDS011;2203;53.686;9.994;2023-12-28T02:26:34;4.37;;;2.20;;
4377;SDS011;2203;53.686;9.994;2023-12-28T02:28:59;2.90;;;2.20;;
4377;SDS011;2203;53.686;9.994;2023-12-28T02:31:29;5.63;;;3.00;;
4377;SDS011;2203;53.686;9.994;2023-12-28T02:33:59;8.90;;;2.60;;
4377;SDS011;2203;53.686;9.994;2023-12-28T02:36:34;5.90;;;2.20;;
4377;SDS011;2203;53.686;9.994;2023-12-28T02:39:00;6.50;;;2.77;;
4377;SDS011;2203;53.686;9.994;2023-12-28T02:41:28;7.70;;;2.77;;
4377;SDS011;2203;53.686;9.994;2023-12-28T02:43:54;4.77;;;2.30;;
4377;SDS011;2203;53.686;9.994;2023-12-28T02:46:20;3.40;;;2.90;;
4377;SDS011;2203;53.686;9.994;2023-12-28T02:48:45;4.13;;;2.77;;
4377;SDS011;2203;53.686;9.994;2023-12-28T02:51:11;3.80;;;2.20;;
4377;SDS011;2203;53.686;9.994;2023-12-28T02:53:36;6.07;;;2.67;;
4377;SDS011;2203;53.686;9.994;2023-12-28T02:56:02;8.37;;;2.90;;
4377;SDS011;2203;53.686;9.994;2023-12-28T02:58:27;7.93;;;2.30;;
4377;SDS011;2203;53.686;9.994;2023-12-28T03:00:52;8.20;;;2.93;;
4377;SDS011;2203;53.686;9.994;2023-12-28T03:03:18;6.60;;;2.57;;
4377;SDS011;2203;53.686;9.994;2023-12-28T03:05:44;3.80;;;2.70;;
4377;SDS011;2203;53.686;9.994;2023-12-28T03:08:09;13.97;;;2.90;;
4377;SDS011;2203;53.686;9.994;2023-12-28T03:10:34;6.40;;;2.60;;
4377;SDS011;2203;53.686;9.994;2023-12-28T03:13:00;4.57;;;2.30;;
4377;SDS011;2203;53.686;9.994;2023-12-28T03:15:26;8.03;;;3.00;;
4377;SDS011;2203;53.686;9.994;2023-12-28T03:17:51;5.67;;;2.43;;
4377;SDS011;2203;53.686;9.994;2023-12-28T03:20:16;8.33;;;2.67;;
4377;SDS011;2203;53.686;9.994;2023-12-28T03:22:42;4.60;;;2.90;;
4377;SDS011;2203;53.686;9.994;2023-12-28T03:25:07;5.60;;;3.60;;
4377;SDS011;2203;53.686;9.994;2023-12-28T03:27:33;3.63;;;2.90;;
4377;SDS011;2203;53.686;9.994;2023-12-28T03:29:58;2.67;;;2.43;;
4377;SDS011;2203;53.686;9.994;2023-12-28T03:32:23;6.03;;;2.70;;
4377;SDS011;2203;53.686;9.994;2023-12-28T03:34:49;6.43;;;2.57;;
4377;SDS011;2203;53.686;9.994;2023-12-28T03:37:14;6.10;;;2.27;;
4377;SDS011;2203;53.686;9.994;2023-12-28T03:39:40;4.07;;;2.23;;
4377;SDS011;2203;53.686;9.994;2023-12-28T03:42:05;4.97;;;2.70;;
4377;SDS011;2203;53.686;9.994;2023-12-28T03:44:31;3.77;;;2.50;;
4377;SDS011;2203;53.686;9.994;2023-12-28T03:46:56;8.10;;;2.40;;
4377;SDS011;2203;53.686;9.994;2023-12-28T03:49:22;4.80;;;3.00;;
4377;SDS011;2203;53.686;9.994;2023-12-28T03:51:48;5.13;;;2.50;;
4377;SDS011;2203;53.686;9.994;2023-12-28T03:54:18;11.27;;;2.33;;
4377;SDS011;2203;53.686;9.994;2023-12-28T03:56:44;8.60;;;2.70;;
4377;SDS011;2203;53.686;9.994;2023-12-28T03:59:10;4.77;;;3.10;;
4377;SDS011;2203;53.686;9.994;2023-12-28T04:01:35;7.37;;;3.13;;
4377;SDS011;2203;53.686;9.994;2023-12-28T04:04:01;4.63;;;2.40;;
4377;SDS011;2203;53.686;9.994;2023-12-28T04:06:27;5.17;;;2.80;;
4377;SDS011;2203;53.686;9.994;2023-12-28T04:08:52;8.50;;;3.40;;
4377;SDS011;2203;53.686;9.994;2023-12-28T04:11:17;6.80;;;3.50;;
4377;SDS011;2203;53.686;9.994;2023-12-28T04:13:43;6.33;;;2.70;;
4377;SDS011;2203;53.686;9.994;2023-12-28T04:16:11;4.53;;;3.10;;
4377;SDS011;2203;53.686;9.994;2023-12-28T04:18:37;5.70;;;2.80;;
4377;SDS011;2203;53.686;9.994;2023-12-28T04:21:03;4.97;;;2.90;;
4377;SDS011;2203;53.686;9.994;2023-12-28T04:23:28;4.87;;;2.60;;
4377;SDS011;2203;53.686;9.994;2023-12-28T04:25:53;12.80;;;3.60;;
4377;SDS011;2203;53.686;9.994;2023-12-28T04:28:19;10.23;;;2.93;;
4377;SDS011;2203;53.686;9.994;2023-12-28T04:30:44;7.90;;;2.93;;
4377;SDS011;2203;53.686;9.994;2023-12-28T04:33:10;6.00;;;2.53;;
4377;SDS011;2203;53.686;9.994;2023-12-28T04:35:35;7.37;;;3.30;;
4377;SDS011;2203;53.686;9.994;2023-12-28T04:38:00;4.20;;;2.60;;
4377;SDS011;2203;53.686;9.994;2023-12-28T04:40:26;9.83;;;3.03;;
4377;SDS011;2203;53.686;9.994;2023-12-28T04:42:51;12.03;;;3.63;;
4377;SDS011;2203;53.686;9.994;2023-12-28T04:45:16;6.30;;;2.77;;
4377;SDS011;2203;53.686;9.994;2023-12-28T04:47:42;4.30;;;2.60;;
4377;SDS011;2203;53.686;9.994;2023-12-28T04:50:07;6.53;;;3.07;;
4377;SDS011;2203;53.686;9.994;2023-12-28T04:52:32;3.33;;;2.47;;
4377;SDS011;2203;53.686;9.994;2023-12-28T04:54:58;8.27;;;2.70;;
4377;SDS011;2203;53.686;9.994;2023-12-28T04:57:24;11.13;;;2.80;;
4377;SDS011;2203;53.686;9.994;2023-12-28T04:59:51;5.63;;;2.33;;
4377;SDS011;2203;53.686;9.994;2023-12-28T05:02:16;9.13;;;3.23;;
4377;SDS011;2203;53.686;9.994;2023-12-28T05:04:42;4.27;;;2.63;;
4377;SDS011;2203;53.686;9.994;2023-12-28T05:07:07;7.63;;;3.40;;
4377;SDS011;2203;53.686;9.994;2023-12-28T05:09:33;10.60;;;2.90;;
4377;SDS011;2203;53.686;9.994;2023-12-28T05:11:58;3.60;;;2.40;;
4377;SDS011;2203;53.686;9.994;2023-12-28T05:14:24;12.30;;;2.90;;
4377;SDS011;2203;53.686;9.994;2023-12-28T05:16:49;5.17;;;2.77;;
4377;SDS011;2203;53.686;9.994;2023-12-28T05:19:15;6.77;;;2.53;;
4377;SDS011;2203;53.686;9.994;2023-12-28T05:21:40;9.27;;;2.90;;
4377;SDS011;2203;53.686;9.994;2023-12-28T05:24:05;8.57;;;2.70;;
4377;SDS011;2203;53.686;9.994;2023-12-28T05:26:31;11.53;;;2.60;;
4377;SDS011;2203;53.686;9.994;2023-12-28T05:28:56;3.03;;;2.17;;
4377;SDS011;2203;53.686;9.994;2023-12-28T05:31:22;6.13;;;2.60;;
4377;SDS011;2203;53.686;9.994;2023-12-28T05:33:47;6.73;;;2.50;;
4377;SDS011;2203;53.686;9.994;2023-12-28T05:36:13;8.20;;;2.67;;
4377;SDS011;2203;53.686;9.994;2023-12-28T05:38:38;8.27;;;2.67;;
4377;SDS011;2203;53.686;9.994;2023-12-28T05:41:03;9.70;;;3.07;;
4377;SDS011;2203;53.686;9.994;2023-12-28T05:43:29;7.73;;;2.87;;
4377;SDS011;2203;53.686;9.994;2023-12-28T05:45:54;8.00;;;3.07;;
4377;SDS011;2203;53.686;9.994;2023-12-28T05:48:20;5.47;;;2.90;;
4377;SDS011;2203;53.686;9.994;2023-12-28T05:50:45;7.20;;;3.03;;
4377;SDS011;2203;53.686;9.994;2023-12-28T05:53:10;6.03;;;2.70;;
4377;SDS011;2203;53.686;9.994;2023-12-28T05:55:39;6.83;;;3.00;;
4377;SDS011;2203;53.686;9.994;2023-12-28T05:58:05;7.73;;;3.10;;
4377;SDS011;2203;53.686;9.994;2023-12-28T06:00:31;9.27;;;3.20;;
4377;SDS011;2203;53.686;9.994;2023-12-28T06:02:56;7.33;;;2.90;;
4377;SDS011;2203;53.686;9.994;2023-12-28T06:05:21;8.30;;;2.83;;
4377;SDS011;2203;53.686;9.994;2023-12-28T06:07:47;7.27;;;3.40;;
4377;SDS011;2203;53.686;9.994;2023-12-28T06:10:12;7.67;;;3.07;;
4377;SDS011;2203;53.686;9.994;2023-12-28T06:12:38;9.20;;;3.07;;
4377;SDS011;2203;53.686;9.994;2023-12-28T06:15:03;5.83;;;3.23;;
4377;SDS011;2203;53.686;9.994;2023-12-28T06:17:29;10.83;;;2.83;;
4377;SDS011;2203;53.686;9.994;2023-12-28T06:19:54;7.40;;;2.47;;
4377;SDS011;2203;53.686;9.994;2023-12-28T06:22:19;8.93;;;2.87;;
4377;SDS011;2203;53.686;9.994;2023-12-28T06:24:45;6.03;;;3.17;;
4377;SDS011;2203;53.686;9.994;2023-12-28T06:27:10;12.67;;;3.33;;
4377;SDS011;2203;53.686;9.994;2023-12-28T06:29:36;9.37;;;2.80;;
4377;SDS011;2203;53.686;9.994;2023-12-28T06:32:01;8.90;;;2.10;;
4377;SDS011;2203;53.686;9.994;2023-12-28T06:34:27;6.30;;;2.87;;
4377;SDS011;2203;53.686;9.994;2023-12-28T06:36:52;7.07;;;3.50;;
4377;SDS011;2203;53.686;9.994;2023-12-28T06:39:18;5.53;;;2.00;;
4377;SDS011;2203;53.686;9.994;2023-12-28T06:41:46;7.80;;;3.57;;
4377;SDS011;2203;53.686;9.994;2023-12-28T06:44:13;6.50;;;2.23;;
4377;SDS011;2203;53.686;9.994;2023-12-28T06:46:39;6.00;;;2.10;;
4377;SDS011;2203;53.686;9.994;2023-12-28T06:49:05;5.13;;;2.70;;
4377;SDS011;2203;53.686;9.994;2023-12-28T06:51:31;14.17;;;1.80;;
4377;SDS011;2203;53.686;9.994;2023-12-28T06:53:56;9.13;;;3.20;;
4377;SDS011;2203;53.686;9.994;2023-12-28T06:56:22;10.07;;;2.80;;
4377;SDS011;2203;53.686;9.994;2023-12-28T06:58:47;5.23;;;2.50;;
4377;SDS011;2203;53.686;9.994;2023-12-28T07:01:13;9.00;;;2.73;;
4377;SDS011;2203;53.686;9.994;2023-12-28T07:03:38;6.50;;;2.73;;
4377;SDS011;2203;53.686;9.994;2023-12-28T07:06:03;8.33;;;3.20;;
4377;SDS011;2203;53.686;9.994;2023-12-28T07:08:29;9.77;;;3.23;;
4377;SDS011;2203;53.686;9.994;2023-12-28T07:10:55;9.50;;;3.00;;
4377;SDS011;2203;53.686;9.994;2023-12-28T07:13:20;5.37;;;2.47;;
4377;SDS011;2203;53.686;9.994;2023-12-28T07:15:45;11.90;;;2.63;;
4377;SDS011;2203;53.686;9.994;2023-12-28T07:18:11;6.60;;;3.10;;
4377;SDS011;2203;53.686;9.994;2023-12-28T07:20:37;9.30;;;2.87;;
4377;SDS011;2203;53.686;9.994;2023-12-28T07:23:02;5.47;;;2.63;;
4377;SDS011;2203;53.686;9.994;2023-12-28T07:25:28;7.00;;;2.30;;
4377;SDS011;2203;53.686;9.994;2023-12-28T07:27:53;8.37;;;2.90;;
4377;SDS011;2203;53.686;9.994;2023-12-28T07:30:19;7.33;;;2.37;;
4377;SDS011;2203;53.686;9.994;2023-12-28T07:32:44;6.07;;;2.60;;
4377;SDS011;2203;53.686;9.994;2023-12-28T07:35:10;9.40;;;3.33;;
4377;SDS011;2203;53.686;9.994;2023-12-28T07:37:36;3.97;;;2.27;;
4377;SDS011;2203;53.686;9.994;2023-12-28T07:40:01;10.37;;;2.70;;
4377;SDS011;2203;53.686;9.994;2023-12-28T07:42:28;7.30;;;3.33;;
4377;SDS011;2203;53.686;9.994;2023-12-28T07:44:54;7.43;;;2.90;;
4377;SDS011;2203;53.686;9.994;2023-12-28T07:47:19;6.73;;;2.67;;
4377;SDS011;2203;53.686;9.994;2023-12-28T07:49:44;7.60;;;2.10;;
4377;SDS011;2203;53.686;9.994;2023-12-28T07:52:10;4.60;;;2.10;;
4377;SDS011;2203;53.686;9.994;2023-12-28T07:54:35;11.33;;;2.70;;
4377;SDS011;2203;53.686;9.994;2023-12-28T07:57:01;11.83;;;3.13;;
4377;SDS011;2203;53.686;9.994;2023-12-28T07:59:26;10.63;;;2.40;;
4377;SDS011;2203;53.686;9.994;2023-12-28T08:01:51;8.47;;;2.53;;
4377;SDS011;2203;53.686;9.994;2023-12-28T08:04:17;9.73;;;2.47;;
4377;SDS011;2203;53.686;9.994;2023-12-28T08:06:42;7.83;;;2.40;;
4377;SDS011;2203;53.686;9.994;2023-12-28T08:09:08;10.73;;;3.07;;
4377;SDS011;2203;53.686;9.994;2023-12-28T08:11:34;9.43;;;2.47;;
4377;SDS011;2203;53.686;9.994;2023-12-28T08:13:59;10.60;;;2.73;;
4377;SDS011;2203;53.686;9.994;2023-12-28T08:16:24;24.37;;;2.40;;
4377;SDS011;2203;53.686;9.994;2023-12-28T08:18:51;9.33;;;1.90;;
4377;SDS011;2203;53.686;9.994;2023-12-28T08:21:16;15.33;;;2.20;;
4377;SDS011;2203;53.686;9.994;2023-12-28T08:23:42;7.07;;;2.47;;
4377;SDS011;2203;53.686;9.994;2023-12-28T08:26:07;16.77;;;2.03;;
4377;SDS011;2203;53.686;9.994;2023-12-28T08:28:33;8.60;;;2.10;;
4377;SDS011;2203;53.686;9.994;2023-12-28T08:30:58;17.70;;;3.83;;
4377;SDS011;2203;53.686;9.994;2023-12-28T08:33:23;9.37;;;2.70;;
4377;SDS011;2203;53.686;9.994;2023-12-28T08:35:49;15.53;;;2.33;;
4377;SDS011;2203;53.686;9.994;2023-12-28T08:38:14;12.37;;;2.60;;
4377;SDS011;2203;53.686;9.994;2023-12-28T08:40:41;13.10;;;2.57;;
4377;SDS011;2203;53.686;9.994;2023-12-28T08:43:06;14.20;;;2.43;;
4377;SDS011;2203;53.686;9.994;2023-12-28T08:45:32;5.93;;;2.10;;
4377;SDS011;2203;53.686;9.994;2023-12-28T08:47:59;9.23;;;2.40;;
4377;SDS011;2203;53.686;9.994;2023-12-28T08:50:24;14.63;;;2.60;;
4377;SDS011;2203;53.686;9.994;2023-12-28T08:52:50;5.93;;;2.13;;
4377;SDS011;2203;53.686;9.994;2023-12-28T08:55:15;18.53;;;2.60;;
4377;SDS011;2203;53.686;9.994;2023-12-28T08:57:41;12.57;;;2.30;;
4377;SDS011;2203;53.686;9.994;2023-12-28T09:00:06;24.43;;;2.87;;
4377;SDS011;2203;53.686;9.994;2023-12-28T09:02:32;5.57;;;1.70;;
4377;SDS011;2203;53.686;9.994;2023-12-28T09:04:58;19.30;;;2.93;;
4377;SDS011;2203;53.686;9.994;2023-12-28T09:07:24;9.60;;;2.13;;
4377;SDS011;2203;53.686;9.994;2023-12-28T09:09:50;9.93;;;2.30;;
4377;SDS011;2203;53.686;9.994;2023-12-28T09:12:15;19.00;;;2.60;;
4377;SDS011;2203;53.686;9.994;2023-12-28T09:14:41;16.37;;;2.33;;
4377;SDS011;2203;53.686;9.994;2023-12-28T09:17:06;17.03;;;3.10;;
4377;SDS011;2203;53.686;9.994;2023-12-28T09:19:31;18.57;;;2.50;;
4377;SDS011;2203;53.686;9.994;2023-12-28T09:21:57;9.90;;;2.90;;
4377;SDS011;2203;53.686;9.994;2023-12-28T09:24:22;9.77;;;2.10;;
4377;SDS011;2203;53.686;9.994;2023-12-28T09:26:48;7.03;;;2.00;;
4377;SDS011;2203;53.686;9.994;2023-12-28T09:29:13;16.20;;;2.30;;
4377;SDS011;2203;53.686;9.994;2023-12-28T09:31:39;16.40;;;3.27;;
4377;SDS011;2203;53.686;9.994;2023-12-28T09:34:04;9.17;;;2.53;;
4377;SDS011;2203;53.686;9.994;2023-12-28T09:36:30;9.40;;;2.53;;
4377;SDS011;2203;53.686;9.994;2023-12-28T09:38:56;15.67;;;3.30;;
4377;SDS011;2203;53.686;9.994;2023-12-28T09:41:22;15.20;;;2.30;;
4377;SDS011;2203;53.686;9.994;2023-12-28T09:43:54;12.93;;;3.47;;
4377;SDS011;2203;53.686;9.994;2023-12-28T09:46:26;11.10;;;2.37;;
4377;SDS011;2203;53.686;9.994;2023-12-28T09:48:51;14.27;;;2.90;;
4377;SDS011;2203;53.686;9.994;2023-12-28T09:51:18;16.33;;;3.30;;
4377;SDS011;2203;53.686;9.994;2023-12-28T09:53:44;8.47;;;2.10;;
4377;SDS011;2203;53.686;9.994;2023-12-28T09:56:10;8.00;;;2.43;;
4377;SDS011;2203;53.686;9.994;2023-12-28T09:58:37;28.70;;;3.10;;
4377;SDS011;2203;53.686;9.994;2023-12-28T10:01:03;11.27;;;2.83;;
4377;SDS011;2203;53.686;9.994;2023-12-28T10:03:30;13.40;;;2.70;;
4377;SDS011;2203;53.686;9.994;2023-12-28T10:05:55;17.87;;;2.60;;
4377;SDS011;2203;53.686;9.994;2023-12-28T10:08:21;15.27;;;2.80;;
4377;SDS011;2203;53.686;9.994;2023-12-28T10:10:46;12.73;;;2.30;;
4377;SDS011;2203;53.686;9.994;2023-12-28T10:13:16;28.83;;;3.00;;
4377;SDS011;2203;53.686;9.994;2023-12-28T10:15:42;22.73;;;2.30;;
4377;SDS011;2203;53.686;9.994;2023-12-28T10:18:08;12.43;;;2.37;;
4377;SDS011;2203;53.686;9.994;2023-12-28T10:20:34;14.47;;;2.70;;
4377;SDS011;2203;53.686;9.994;2023-12-28T10:22:59;13.47;;;3.10;;
4377;SDS011;2203;53.686;9.994;2023-12-28T10:25:25;14.23;;;2.83;;
4377;SDS011;2203;53.686;9.994;2023-12-28T10:27:52;12.17;;;2.90;;
4377;SDS011;2203;53.686;9.994;2023-12-28T10:30:19;11.47;;;2.47;;
4377;SDS011;2203;53.686;9.994;2023-12-28T10:32:45;11.90;;;2.43;;
4377;SDS011;2203;53.686;9.994;2023-12-28T10:35:11;12.43;;;3.00;;
4377;SDS011;2203;53.686;9.994;2023-12-28T10:37:36;17.73;;;2.60;;
4377;SDS011;2203;53.686;9.994;2023-12-28T10:40:05;15.60;;;2.50;;
4377;SDS011;2203;53.686;9.994;2023-12-28T10:42:32;26.43;;;2.67;;
4377;SDS011;2203;53.686;9.994;2023-12-28T10:45:03;18.23;;;2.43;;
4377;SDS011;2203;53.686;9.994;2023-12-28T10:47:37;14.10;;;3.97;;
4377;SDS011;2203;53.686;9.994;2023-12-28T10:50:04;14.17;;;2.47;;
4377;SDS011;2203;53.686;9.994;2023-12-28T10:52:31;22.07;;;3.17;;
4377;SDS011;2203;53.686;9.994;2023-12-28T10:55:14;24.50;;;4.87;;
4377;SDS011;2203;53.686;9.994;2023-12-28T11:00:22;19.13;;;2.93;;
4377;SDS011;2203;53.686;9.994;2023-12-28T11:02:50;19.93;;;2.83;;
4377;SDS011;2203;53.686;9.994;2023-12-28T11:05:17;23.10;;;3.00;;
4377;SDS011;2203;53.686;9.994;2023-12-28T11:07:43;13.77;;;2.50;;
4377;SDS011;2203;53.686;9.994;2023-12-28T11:10:09;17.63;;;3.50;;
4377;SDS011;2203;53.686;9.994;2023-12-28T11:12:35;19.70;;;3.50;;
4377;SDS011;2203;53.686;9.994;2023-12-28T11:15:01;15.23;;;3.63;;
4377;SDS011;2203;53.686;9.994;2023-12-28T11:17:28;10.60;;;2.40;;
4377;SDS011;2203;53.686;9.994;2023-12-28T11:19:56;19.40;;;3.13;;
4377;SDS011;2203;53.686;9.994;2023-12-28T11:22:22;23.17;;;3.40;;
4377;SDS011;2203;53.686;9.994;2023-12-28T11:24:48;12.20;;;3.00;;
4377;SDS011;2203;53.686;9.994;2023-12-28T11:27:13;18.30;;;2.73;;
4377;SDS011;2203;53.686;9.994;2023-12-28T11:29:40;13.77;;;2.90;;
4377;SDS011;2203;53.686;9.994;2023-12-28T11:32:07;20.10;;;3.07;;
4377;SDS011;2203;53.686;9.994;2023-12-28T11:34:33;17.90;;;2.33;;
4377;SDS011;2203;53.686;9.994;2023-12-28T11:37:09;19.87;;;2.63;;
4377;SDS011;2203;53.686;9.994;2023-12-28T11:39:38;18.40;;;2.83;;
4377;SDS011;2203;53.686;9.994;2023-12-28T11:42:08;21.67;;;3.30;;
4377;SDS011;2203;53.686;9.994;2023-12-28T11:44:38;24.47;;;3.20;;
4377;SDS011;2203;53.686;9.994;2023-12-28T11:47:14;14.30;;;2.90;;
4377;SDS011;2203;53.686;9.994;2023-12-28T11:49:40;15.20;;;2.40;;
4377;SDS011;2203;53.686;9.994;2023-12-28T11:52:06;22.17;;;2.77;;
4377;SDS011;2203;53.686;9.994;2023-12-28T11:54:32;27.73;;;3.70;;
4377;SDS011;2203;53.686;9.994;2023-12-28T11:56:58;22.43;;;3.83;;
4377;SDS011;2203;53.686;9.994;2023-12-28T11:59:23;17.53;;;2.83;;
4377;SDS011;2203;53.686;9.994;2023-12-28T12:01:52;18.10;;;4.13;;
4377;SDS011;2203;53.686;9.994;2023-12-28T12:04:18;20.77;;;2.80;;
4377;SDS011;2203;53.686;9.994;2023-12-28T12:06:45;13.87;;;2.90;;
4377;SDS011;2203;53.686;9.994;2023-12-28T12:09:16;17.90;;;3.10;;
4377;SDS011;2203;53.686;9.994;2023-12-28T12:11:47;21.10;;;3.73;;
4377;SDS011;2203;53.686;9.994;2023-12-28T12:14:12;14.37;;;2.60;;
4377;SDS011;2203;53.686;9.994;2023-12-28T12:16:38;19.80;;;3.80;;
4377;SDS011;2203;53.686;9.994;2023-12-28T12:19:04;18.27;;;3.70;;
4377;SDS011;2203;53.686;9.994;2023-12-28T12:21:30;18.40;;;2.97;;
4377;SDS011;2203;53.686;9.994;2023-12-28T12:23:55;13.07;;;2.93;;
4377;SDS011;2203;53.686;9.994;2023-12-28T12:26:21;25.93;;;3.70;;
4377;SDS011;2203;53.686;9.994;2023-12-28T12:28:46;18.37;;;4.20;;
4377;SDS011;2203;53.686;9.994;2023-12-28T12:31:13;25.30;;;5.00;;
4377;SDS011;2203;53.686;9.994;2023-12-28T12:33:39;30.10;;;4.10;;
4377;SDS011;2203;53.686;9.994;2023-12-28T12:36:05;20.93;;;3.60;;
4377;SDS011;2203;53.686;9.994;2023-12-28T12:38:31;28.73;;;4.67;;
4377;SDS011;2203;53.686;9.994;2023-12-28T12:40:57;26.00;;;3.40;;
4377;SDS011;2203;53.686;9.994;2023-12-28T12:43:23;29.73;;;5.43;;
4377;SDS011;2203;53.686;9.994;2023-12-28T12:45:49;23.30;;;3.83;;
4377;SDS011;2203;53.686;9.994;2023-12-28T12:48:14;29.07;;;4.10;;
4377;SDS011;2203;53.686;9.994;2023-12-28T12:50:40;19.67;;;3.13;;
4377;SDS011;2203;53.686;9.994;2023-12-28T12:53:05;31.93;;;3.80;;
4377;SDS011;2203;53.686;9.994;2023-12-28T12:55:30;13.03;;;3.00;;
4377;SDS011;2203;53.686;9.994;2023-12-28T12:57:57;20.60;;;3.40;;
4377;SDS011;2203;53.686;9.994;2023-12-28T13:00:23;18.27;;;2.80;;
4377;SDS011;2203;53.686;9.994;2023-12-28T13:02:51;15.10;;;2.90;;
4377;SDS011;2203;53.686;9.994;2023-12-28T13:05:18;32.23;;;3.57;;
4377;SDS011;2203;53.686;9.994;2023-12-28T13:07:44;25.00;;;3.07;;
4377;SDS011;2203;53.686;9.994;2023-12-28T13:10:09;13.60;;;3.33;;
4377;SDS011;2203;53.686;9.994;2023-12-28T13:12:35;26.83;;;3.40;;
4377;SDS011;2203;53.686;9.994;2023-12-28T13:15:01;17.83;;;3.60;;
4377;SDS011;2203;53.686;9.994;2023-12-28T13:17:26;15.03;;;3.13;;
4377;SDS011;2203;53.686;9.994;2023-12-28T13:19:51;21.53;;;3.03;;
4377;SDS011;2203;53.686;9.994;2023-12-28T13:22:17;19.33;;;3.80;;
4377;SDS011;2203;53.686;9.994;2023-12-28T13:24:42;15.73;;;2.87;;
4377;SDS011;2203;53.686;9.994;2023-12-28T13:27:08;18.27;;;3.33;;
4377;SDS011;2203;53.686;9.994;2023-12-28T13:29:35;30.57;;;4.23;;
4377;SDS011;2203;53.686;9.994;2023-12-28T13:32:00;16.57;;;2.50;;
4377;SDS011;2203;53.686;9.994;2023-12-28T13:34:26;20.83;;;3.60;;
4377;SDS011;2203;53.686;9.994;2023-12-28T13:36:53;17.03;;;3.33;;
4377;SDS011;2203;53.686;9.994;2023-12-28T13:39:19;18.67;;;4.30;;
4377;SDS011;2203;53.686;9.994;2023-12-28T13:41:44;41.83;;;5.30;;
4377;SDS011;2203;53.686;9.994;2023-12-28T13:44:10;26.40;;;4.73;;
4377;SDS011;2203;53.686;9.994;2023-12-28T13:46:37;32.77;;;2.93;;
4377;SDS011;2203;53.686;9.994;2023-12-28T13:49:05;28.07;;;3.70;;
4377;SDS011;2203;53.686;9.994;2023-12-28T13:51:32;25.60;;;3.50;;
4377;SDS011;2203;53.686;9.994;2023-12-28T13:53:58;15.47;;;3.00;;
4377;SDS011;2203;53.686;9.994;2023-12-28T13:56:23;14.20;;;2.87;;
4377;SDS011;2203;53.686;9.994;2023-12-28T13:58:49;16.47;;;3.03;;
4377;SDS011;2203;53.686;9.994;2023-12-28T14:01:14;18.83;;;4.03;;
4377;SDS011;2203;53.686;9.994;2023-12-28T14:03:40;16.50;;;2.87;;
4377;SDS011;2203;53.686;9.994;2023-12-28T14:06:05;20.00;;;3.93;;
4377;SDS011;2203;53.686;9.994;2023-12-28T14:08:31;21.77;;;3.60;;
4377;SDS011;2203;53.686;9.994;2023-12-28T14:10:56;19.67;;;3.40;;
4377;SDS011;2203;53.686;9.994;2023-12-28T14:13:21;22.33;;;4.17;;
4377;SDS011;2203;53.686;9.994;2023-12-28T14:15:47;19.53;;;3.10;;
4377;SDS011;2203;53.686;9.994;2023-12-28T14:18:13;26.17;;;3.23;;
4377;SDS011;2203;53.686;9.994;2023-12-28T14:20:38;22.60;;;3.10;;
4377;SDS011;2203;53.686;9.994;2023-12-28T14:23:04;18.50;;;2.43;;
4377;SDS011;2203;53.686;9.994;2023-12-28T14:25:29;22.47;;;3.23;;
4377;SDS011;2203;53.686;9.994;2023-12-28T14:27:55;43.30;;;6.20;;
4377;SDS011;2203;53.686;9.994;2023-12-28T14:30:21;15.97;;;3.10;;
4377;SDS011;2203;53.686;9.994;2023-12-28T14:32:47;22.60;;;3.70;;
4377;SDS011;2203;53.686;9.994;2023-12-28T14:35:13;25.30;;;3.60;;
4377;SDS011;2203;53.686;9.994;2023-12-28T14:37:41;24.33;;;3.13;;
4377;SDS011;2203;53.686;9.994;2023-12-28T14:40:14;35.47;;;7.17;;
4377;SDS011;2203;53.686;9.994;2023-12-28T14:42:40;23.53;;;3.60;;
4377;SDS011;2203;53.686;9.994;2023-12-28T14:45:05;26.50;;;3.80;;
4377;SDS011;2203;53.686;9.994;2023-12-28T14:47:31;23.30;;;3.37;;
4377;SDS011;2203;53.686;9.994;2023-12-28T14:49:57;45.93;;;3.90;;
4377;SDS011;2203;53.686;9.994;2023-12-28T14:52:22;20.33;;;3.23;;
4377;SDS011;2203;53.686;9.994;2023-12-28T14:54:48;33.07;;;3.83;;
4377;SDS011;2203;53.686;9.994;2023-12-28T14:57:15;25.37;;;3.80;;
4377;SDS011;2203;53.686;9.994;2023-12-28T14:59:41;21.07;;;3.10;;
4377;SDS011;2203;53.686;9.994;2023-12-28T15:02:06;37.20;;;4.90;;
4377;SDS011;2203;53.686;9.994;2023-12-28T15:04:32;19.47;;;3.67;;